createdAt,value
2022-11-29T00:04:33.376Z,17.40
2022-11-29T00:09:34.994Z,16.53
2022-11-29T00:14:36.644Z,17.23
2022-11-29T00:19:38.350Z,16.47
2022-11-29T00:24:39.921Z,16.47
2022-11-29T00:29:41.514Z,16.77
2022-11-29T00:34:43.289Z,16.13
2022-11-29T00:39:45.154Z,20.30
2022-11-29T00:44:47.131Z,20.47
2022-11-29T00:49:48.818Z,22.47
2022-11-29T00:54:50.510Z,22.00
2022-11-29T00:59:52.094Z,17.63
2022-11-29T01:04:53.698Z,22.27
2022-11-29T01:09:55.314Z,20.90
2022-11-29T01:14:58.690Z,20.77
2022-11-29T01:20:00.298Z,20.60
2022-11-29T01:25:02.030Z,20.73
2022-11-29T01:30:08.118Z,18.20
2022-11-29T01:35:09.766Z,19.87
2022-11-29T01:40:11.782Z,17.57
2022-11-29T01:45:23.700Z,21.47
2022-11-29T01:50:25.454Z,25.37
2022-11-29T01:55:27.180Z,23.20
2022-11-29T02:00:29.706Z,16.27
2022-11-29T02:05:33.246Z,20.20
2022-11-29T02:10:44.568Z,20.07
2022-11-29T02:15:46.191Z,20.30
2022-11-29T02:21:21.571Z,18.13
2022-11-29T02:26:57.555Z,18.83
2022-11-29T02:32:17.610Z,17.57
2022-11-29T02:37:41.570Z,21.37
2022-11-29T02:42:54.368Z,15.77
2022-11-29T02:48:25.211Z,18.40
2022-11-29T02:53:37.227Z,16.10
2022-11-29T02:58:51.471Z,18.23
2022-11-29T03:04:14.207Z,17.63
2022-11-29T03:09:42.859Z,18.63
2022-11-29T03:14:56.067Z,16.53
2022-11-29T03:20:23.548Z,16.10
2022-11-29T03:25:55.941Z,16.40
2022-11-29T03:31:10.292Z,16.47
2022-11-29T03:36:28.554Z,19.40
2022-11-29T03:42:00.075Z,18.63
2022-11-29T03:47:15.765Z,20.90
2022-11-29T03:52:58.818Z,20.10
2022-11-29T03:58:00.400Z,19.73
2022-11-29T04:03:50.098Z,18.27
2022-11-29T04:09:23.006Z,20.20
2022-11-29T04:14:38.470Z,17.17
2022-11-29T04:20:01.935Z,15.27
2022-11-29T04:25:03.770Z,21.10
2022-11-29T04:30:11.239Z,17.13
2022-11-29T04:35:27.891Z,17.00
2022-11-29T04:40:32.642Z,14.37
2022-11-29T04:45:54.717Z,13.23
2022-11-29T04:50:59.258Z,18.47
2022-11-29T04:56:19.590Z,15.20
2022-11-29T05:02:09.297Z,15.30
2022-11-29T05:07:28.053Z,16.17
2022-11-29T05:12:41.665Z,19.93
2022-11-29T05:18:06.927Z,16.63
2022-11-29T05:23:37.818Z,16.07
2022-11-29T05:28:54.322Z,16.10
2022-11-29T05:34:10.772Z,19.60
2022-11-29T05:39:15.256Z,11.10
2022-11-29T05:44:24.490Z,16.37
2022-11-29T05:49:44.729Z,13.93
2022-11-29T05:54:49.088Z,13.83
2022-11-29T05:59:51.838Z,13.73
2022-11-29T06:05:03.985Z,18.33
2022-11-29T06:10:06.900Z,15.77
2022-11-29T06:15:33.806Z,21.73
2022-11-29T06:20:53.543Z,16.93
2022-11-29T06:26:10.846Z,16.37
2022-11-29T06:31:38.586Z,16.57
2022-11-29T06:36:49.371Z,12.43
2022-11-29T06:41:51.198Z,16.33
2022-11-29T06:47:08.612Z,11.57
2022-11-29T06:52:18.948Z,15.53
2022-11-29T06:57:33.262Z,14.17
2022-11-29T07:02:52.817Z,13.47
2022-11-29T07:07:57.599Z,15.20
2022-11-29T07:13:00.936Z,11.97
2022-11-29T07:18:31.988Z,14.63
2022-11-29T07:23:36.378Z,15.80
2022-11-29T07:28:55.755Z,15.07
2022-11-29T07:34:32.236Z,15.40
2022-11-29T07:40:11.174Z,13.70
2022-11-29T07:45:32.015Z,18.10
2022-11-29T07:50:35.747Z,10.90
2022-11-29T07:55:37.444Z,13.23
2022-11-29T08:00:39.810Z,15.80
2022-11-29T08:05:46.947Z,21.90
2022-11-29T08:10:49.189Z,16.07
2022-11-29T08:15:56.600Z,17.30
2022-11-29T08:20:58.346Z,19.37
2022-11-29T08:26:03.572Z,17.40
2022-11-29T08:31:07.963Z,18.03
2022-11-29T08:36:12.816Z,18.10
2022-11-29T08:41:16.234Z,21.33
2022-11-29T08:46:18.985Z,21.20
2022-11-29T08:51:20.769Z,19.00
2022-11-29T09:01:43.862Z,23.63
2022-11-29T09:06:45.582Z,25.93
2022-11-29T09:11:49.628Z,25.30
2022-11-29T09:16:51.437Z,23.87
2022-11-29T09:21:53.315Z,23.97
2022-11-29T09:26:54.893Z,24.03
2022-11-29T09:31:56.568Z,24.77
2022-11-29T09:36:58.264Z,21.37
2022-11-29T09:42:22.855Z,21.37
2022-11-29T09:47:33.512Z,19.53
2022-11-29T09:52:47.576Z,18.63
2022-11-29T09:57:50.660Z,19.47
2022-11-29T10:03:27.026Z,18.57
2022-11-29T10:08:38.251Z,19.27
2022-11-29T10:13:45.769Z,20.83
2022-11-29T10:18:58.817Z,17.67
2022-11-29T10:24:23.205Z,19.77
2022-11-29T10:29:25.083Z,15.70
2022-11-29T10:34:30.929Z,16.33
2022-11-29T10:39:47.595Z,18.17
2022-11-29T10:44:49.259Z,19.60
2022-11-29T10:49:51.034Z,16.77
2022-11-29T10:54:58.601Z,16.70
2022-11-29T11:06:13.878Z,19.47
2022-11-29T11:11:28.282Z,19.17
2022-11-29T11:16:35.614Z,19.40
2022-11-29T11:21:39.263Z,15.97
2022-11-29T11:26:43.838Z,19.90
2022-11-29T11:31:53.553Z,15.90
2022-11-29T11:37:16.245Z,15.83
2022-11-29T11:42:37.191Z,14.80
2022-11-29T11:48:01.834Z,17.47
2022-11-29T11:53:19.378Z,13.77
2022-11-29T11:58:27.546Z,15.00
2022-11-29T12:03:37.252Z,16.93
2022-11-29T12:08:40.062Z,14.30
2022-11-29T12:13:47.881Z,11.23
2022-11-29T12:18:56.267Z,11.27
2022-11-29T12:24:00.656Z,11.30
2022-11-29T12:29:02.587Z,11.47
2022-11-29T12:34:34.834Z,10.70
2022-11-29T12:39:49.890Z,13.23
2022-11-29T12:44:54.162Z,15.23
2022-11-29T12:50:07.904Z,11.70
2022-11-29T12:55:45.289Z,12.70
2022-11-29T13:00:59.942Z,14.97
2022-11-29T13:06:20.241Z,12.40
2022-11-29T13:11:32.706Z,9.50
2022-11-29T13:16:57.875Z,10.53
2022-11-29T13:22:18.592Z,10.77
2022-11-29T13:27:36.729Z,13.50
2022-11-29T13:33:14.126Z,11.10
2022-11-29T13:38:23.658Z,13.20
2022-11-29T13:43:37.475Z,18.20
2022-11-29T13:48:53.451Z,13.00
2022-11-29T13:53:57.407Z,13.10
2022-11-29T13:59:01.247Z,16.33
2022-11-29T14:04:16.205Z,16.27
2022-11-29T14:09:33.075Z,14.40
2022-11-29T14:14:48.269Z,13.30
2022-11-29T14:19:49.978Z,13.53
2022-11-29T14:25:08.195Z,15.50
2022-11-29T14:30:47.287Z,14.60
2022-11-29T14:35:58.174Z,15.33
2022-11-29T14:41:06.644Z,15.60
2022-11-29T14:46:14.460Z,12.23
2022-11-29T14:51:19.351Z,15.07
2022-11-29T14:56:32.747Z,14.67
2022-11-29T15:01:34.680Z,14.23
2022-11-29T15:06:45.160Z,18.87
2022-11-29T15:11:55.984Z,16.10
2022-11-29T15:17:20.859Z,15.83
2022-11-29T15:22:28.903Z,21.33
2022-11-29T15:27:30.667Z,22.27
2022-11-29T15:32:32.909Z,19.40
2022-11-29T15:37:34.523Z,22.07
2022-11-29T15:42:47.315Z,19.93
2022-11-29T15:47:49.003Z,21.67
2022-11-29T15:52:50.773Z,19.87
2022-11-29T15:57:55.372Z,19.67
2022-11-29T16:02:59.827Z,21.03
2022-11-29T16:08:06.280Z,27.07
2022-11-29T16:13:37.038Z,27.50
2022-11-29T16:18:41.088Z,20.07
2022-11-29T16:23:43.388Z,20.93
2022-11-29T16:28:48.530Z,23.07
2022-11-29T16:33:52.390Z,21.40
2022-11-29T16:38:58.874Z,22.40
2022-11-29T16:44:03.322Z,22.43
2022-11-29T16:49:30.935Z,21.87
2022-11-29T16:54:35.693Z,23.77
2022-11-29T16:59:38.702Z,28.63
2022-11-29T17:04:40.727Z,30.47
2022-11-29T17:09:42.452Z,28.80
2022-11-29T17:14:44.409Z,32.23
2022-11-29T17:19:46.237Z,27.33
2022-11-29T17:24:48.636Z,29.00
2022-11-29T17:29:50.427Z,28.13
2022-11-29T17:34:52.041Z,34.17
2022-11-29T17:39:53.711Z,30.37
2022-11-29T17:44:55.363Z,28.77
2022-11-29T17:49:58.108Z,25.20
2022-11-29T17:54:59.814Z,32.63
2022-11-29T18:00:04.216Z,30.07
2022-11-29T18:05:06.432Z,33.07
2022-11-29T18:10:08.868Z,31.87
2022-11-29T18:15:10.470Z,31.43
2022-11-29T18:20:14.040Z,33.23
2022-11-29T18:25:38.036Z,32.83
2022-11-29T18:30:37.563Z,36.80
2022-11-29T18:35:39.239Z,42.93
2022-11-29T18:40:42.510Z,39.63
2022-11-29T18:45:44.153Z,35.23
2022-11-29T18:50:45.826Z,37.33
2022-11-29T18:55:47.390Z,35.43
2022-11-29T19:00:48.983Z,37.30
2022-11-29T19:05:54.510Z,30.77
2022-11-29T19:10:56.509Z,36.30
2022-11-29T19:15:58.217Z,34.20
2022-11-29T19:21:08.134Z,34.97
2022-11-29T19:26:12.251Z,32.13
2022-11-29T19:31:15.801Z,32.83
2022-11-29T19:36:25.989Z,31.93
2022-11-29T19:41:30.402Z,34.33
2022-11-29T19:46:38.468Z,29.80
2022-11-29T19:51:40.134Z,35.77
2022-11-29T19:56:42.052Z,30.43
2022-11-29T20:01:43.941Z,47.17
2022-11-29T20:06:45.602Z,41.83
2022-11-29T20:11:47.460Z,38.70
2022-11-29T20:16:49.106Z,33.37
2022-11-29T20:21:51.210Z,29.70
2022-11-29T20:26:52.976Z,29.67
2022-11-29T20:31:54.630Z,30.33
2022-11-29T20:37:18.667Z,29.23
2022-11-29T20:42:29.587Z,31.57
2022-11-29T20:47:51.227Z,31.73
2022-11-29T20:53:04.667Z,27.17
2022-11-29T20:58:06.730Z,29.37
2022-11-29T21:03:08.275Z,28.10
2022-11-29T21:08:09.838Z,29.87
2022-11-29T21:13:12.962Z,29.10
2022-11-29T21:18:24.178Z,30.47
2022-11-29T21:23:36.206Z,33.47
2022-11-29T21:28:46.849Z,29.50
2022-11-29T21:33:48.754Z,29.60
2022-11-29T21:38:54.832Z,28.00
2022-11-29T21:44:12.548Z,25.27
2022-11-29T21:49:14.241Z,24.53
2022-11-29T21:54:15.814Z,28.63
2022-11-29T21:59:17.533Z,25.37
2022-11-29T22:04:19.508Z,25.43
2022-11-29T22:09:21.345Z,28.30
2022-11-29T22:14:23.863Z,28.30
2022-11-29T22:19:30.531Z,31.43
2022-11-29T22:24:34.510Z,28.27
2022-11-29T22:29:36.156Z,28.00
2022-11-29T22:34:37.698Z,28.53
2022-11-29T22:39:39.335Z,32.67
2022-11-29T22:44:40.931Z,39.00
2022-11-29T22:49:44.472Z,40.00
2022-11-29T22:54:46.183Z,34.07
2022-11-29T22:59:47.926Z,33.33
2022-11-29T23:04:49.569Z,31.50
2022-11-29T23:09:51.457Z,31.93
2022-11-29T23:14:56.224Z,28.30
2022-11-29T23:19:58.428Z,31.83
2022-11-29T23:24:59.998Z,33.23
2022-11-29T23:30:01.673Z,31.27
2022-11-29T23:35:03.372Z,31.17
2022-11-29T23:40:06.455Z,33.30
2022-11-29T23:45:08.291Z,39.00
2022-11-29T23:50:10.822Z,38.13
2022-11-29T23:55:14.452Z,32.57
